Time;durP1;ratioP1;P1;durP2;ratioP2;P2;SDS_P1;SDS_P2;PMS_P1;PMS_P2;Temp;Humidity;BMP_temperature;BMP_pressure;BME280_temperature;BME280_humidity;BME280_pressure;Samples;Min_cycle;Max_cycle;Signal;HPM_P1;HPM_P2
2023/05/25 00:01:23;;;;;;;8.13;3.58;;;8.90;1.00;;;;;;5000927;28;20042;-79
2023/05/25 00:03:51;;;;;;;8.52;2.88;;;8.80;1.40;;;;;;5011516;28;20387;-79
2023/05/25 00:06:18;;;;;;;11.20;3.60;;;8.80;3.80;;;;;;5009601;28;20316;-79
2023/05/25 00:08:45;;;;;;;12.57;3.88;;;8.80;8.20;;;;;;4996136;28;20042;-79
2023/05/25 00:11:11;;;;;;;7.93;3.60;;;8.80;11.80;;;;;;5014477;28;20053;-80
2023/05/25 00:13:38;;;;;;;5.57;3.45;;;8.70;11.50;;;;;;5003166;28;20041;-79
2023/05/25 00:16:05;;;;;;;13.35;4.63;;;8.70;12.30;;;;;;5003893;28;20435;-80
2023/05/25 00:18:32;;;;;;;12.80;4.05;;;8.70;14.90;;;;;;5008885;28;20467;-79
2023/05/25 00:21:04;;;;;;;8.52;3.05;;;8.70;20.40;;;;;;5009098;28;20053;-79
2023/05/25 00:23:30;;;;;;;13.50;3.53;;;8.70;21.10;;;;;;5010374;28;20328;-78
2023/05/25 00:25:56;;;;;;;9.85;4.07;;;8.70;23.40;;;;;;5014405;28;20037;-79
2023/05/25 00:28:22;;;;;;;11.35;4.35;;;8.60;26.20;;;;;;5012358;28;20041;-78
2023/05/25 00:30:49;;;;;;;12.82;3.53;;;8.60;29.50;;;;;;5014864;28;20041;-78
2023/05/25 00:33:15;;;;;;;10.13;3.28;;;8.60;34.60;;;;;;5014018;28;20034;-78
2023/05/25 00:35:43;;;;;;;10.60;3.25;;;8.60;39.10;;;;;;5013626;28;20038;-78
2023/05/25 00:38:18;;;;;;;7.97;3.95;;;8.50;41.50;;;;;;5012651;28;20034;-79
2023/05/25 00:40:45;;;;;;;8.68;3.58;;;8.50;46.80;;;;;;5014376;28;20037;-78
2023/05/25 00:43:12;;;;;;;6.50;3.35;;;8.50;51.70;;;;;;5012647;28;20462;-78
2023/05/25 00:45:39;;;;;;;9.82;3.85;;;8.50;55.10;;;;;;5014731;28;20030;-77
2023/05/25 00:48:05;;;;;;;8.55;3.90;;;8.40;60.80;;;;;;5010180;28;20038;-80
2023/05/25 00:50:42;;;;;;;9.50;3.58;;;8.40;63.80;;;;;;5012035;28;20037;-78
2023/05/25 00:53:09;;;;;;;9.73;3.88;;;8.30;72.00;;;;;;5013651;28;20026;-78
2023/05/25 00:55:40;;;;;;;13.50;3.20;;;8.30;77.70;;;;;;5013773;28;20041;-78
2023/05/25 00:58:08;;;;;;;15.35;4.07;;;8.30;84.10;;;;;;5005502;28;20033;-80
2023/05/25 01:00:36;;;;;;;7.95;3.80;;;8.30;86.50;;;;;;5001586;28;20041;-78
2023/05/25 01:03:10;;;;;;;12.45;3.22;;;8.30;88.40;;;;;;5025428;28;20348;-79
2023/05/25 01:05:41;;;;;;;13.95;4.53;;;8.30;90.10;;;;;;5011948;28;20033;-77
2023/05/25 01:08:09;;;;;;;6.07;3.22;;;8.30;92.00;;;;;;5014033;28;20030;-77
2023/05/25 01:10:38;;;;;;;9.43;3.53;;;8.30;95.60;;;;;;5012038;28;20038;-77
2023/05/25 01:13:07;;;;;;;12.50;3.72;;;8.20;98.70;;;;;;5014217;28;20033;-78
2023/05/25 01:15:36;;;;;;;10.17;3.87;;;8.30;99.90;;;;;;5014595;28;20046;-78
2023/05/25 01:18:03;;;;;;;14.05;4.18;;;8.20;99.90;;;;;;5014831;28;20045;-77
2023/05/25 01:20:29;;;;;;;6.65;3.83;;;8.20;99.90;;;;;;5011367;28;20385;-76
2023/05/25 01:23:16;;;;;;;11.02;4.05;;;8.10;99.90;;;;;;5009891;28;20467;-77
2023/05/25 01:25:46;;;;;;;11.50;4.13;;;8.10;99.90;;;;;;5007224;28;20037;-78
2023/05/25 01:28:15;;;;;;;8.75;4.32;;;8.10;99.90;;;;;;5013864;28;20371;-78
2023/05/25 01:30:46;;;;;;;13.75;4.05;;;8.00;99.90;;;;;;5014319;28;20029;-77
2023/05/25 01:33:13;;;;;;;9.10;3.58;;;8.00;99.90;;;;;;5012175;28;20474;-77
2023/05/25 01:35:40;;;;;;;9.43;3.90;;;7.90;99.90;;;;;;5030133;28;20038;-78
2023/05/25 01:38:08;;;;;;;12.00;4.35;;;7.80;99.90;;;;;;5014456;28;20041;-78
2023/05/25 01:40:34;;;;;;;8.18;3.58;;;7.80;99.90;;;;;;5012756;28;20041;-78
2023/05/25 01:43:00;;;;;;;10.88;4.50;;;7.80;99.90;;;;;;5026104;28;20050;-78
2023/05/25 01:45:27;;;;;;;9.55;3.33;;;7.70;99.90;;;;;;5021141;28;20065;-78
2023/05/25 01:47:53;;;;;;;12.05;4.07;;;7.60;99.90;;;;;;5012178;28;20041;-77
2023/05/25 01:50:35;;;;;;;15.15;3.67;;;7.60;99.90;;;;;;5010780;28;20021;-77
2023/05/25 01:53:23;;;;;;;9.57;3.47;;;7.60;99.90;;;;;;5004780;28;20045;-77
2023/05/25 01:56:00;;;;;;;10.43;4.07;;;7.60;99.90;;;;;;5013606;28;20029;-78
2023/05/25 01:58:35;;;;;;;16.92;5.20;;;7.60;99.90;;;;;;5008311;28;20482;-78
2023/05/25 02:01:03;;;;;;;12.82;4.13;;;7.50;99.90;;;;;;5005090;28;20045;-78
2023/05/25 02:03:29;;;;;;;15.23;4.82;;;7.50;99.90;;;;;;5011265;28;20053;-77
2023/05/25 02:05:56;;;;;;;12.90;5.10;;;7.60;99.90;;;;;;5010743;28;20042;-76
2023/05/25 02:08:23;;;;;;;12.07;4.78;;;7.60;99.90;;;;;;5011082;28;20398;-78
2023/05/25 02:10:49;;;;;;;12.48;4.43;;;7.50;99.90;;;;;;5010735;28;20030;-77
2023/05/25 02:13:15;;;;;;;15.75;4.20;;;7.50;99.90;;;;;;5012583;28;20049;-78
2023/05/25 02:15:41;;;;;;;11.00;4.20;;;7.60;99.90;;;;;;5008909;28;20054;-77
2023/05/25 02:18:07;;;;;;;9.45;3.55;;;7.50;99.90;;;;;;5008825;28;20038;-78
2023/05/25 02:20:35;;;;;;;12.70;3.80;;;7.60;99.90;;;;;;4998526;28;20112;-78
2023/05/25 02:23:02;;;;;;;11.52;4.30;;;7.40;99.90;;;;;;5009440;28;20046;-78
2023/05/25 02:25:28;;;;;;;15.57;3.90;;;7.50;99.90;;;;;;5012140;28;20030;-78
2023/05/25 02:27:54;;;;;;;11.10;4.25;;;7.50;99.90;;;;;;5011791;28;20037;-78
2023/05/25 02:30:20;;;;;;;8.90;4.22;;;7.50;99.90;;;;;;5001435;28;20057;-78
2023/05/25 02:32:46;;;;;;;8.85;4.25;;;7.40;99.90;;;;;;5010105;28;20038;-78
2023/05/25 02:35:13;;;;;;;10.70;4.22;;;7.40;99.90;;;;;;5026812;28;20038;-78
2023/05/25 02:37:39;;;;;;;10.45;3.67;;;7.50;99.90;;;;;;5028066;28;20517;-79
2023/05/25 02:40:08;;;;;;;8.85;3.80;;;7.40;99.90;;;;;;5009565;28;20470;-79
2023/05/25 02:42:34;;;;;;;10.30;4.30;;;7.40;99.90;;;;;;5006485;28;20041;-78
2023/05/25 02:45:00;;;;;;;12.50;3.78;;;7.40;99.90;;;;;;5011453;28;20068;-79
2023/05/25 02:47:28;;;;;;;12.25;4.18;;;7.30;99.90;;;;;;5025273;28;20045;-77
2023/05/25 02:49:55;;;;;;;12.02;4.32;;;7.40;99.90;;;;;;5009528;28;20490;-78
2023/05/25 02:52:21;;;;;;;7.75;3.90;;;7.30;99.90;;;;;;5000716;28;20375;-78
2023/05/25 02:54:48;;;;;;;8.63;3.40;;;7.30;99.90;;;;;;4994371;28;20158;-78
2023/05/25 02:57:22;;;;;;;7.97;3.35;;;7.30;99.90;;;;;;4998643;28;20067;-78
2023/05/25 02:59:49;;;;;;;9.32;4.30;;;7.40;99.90;;;;;;4993309;28;20049;-78
2023/05/25 03:02:17;;;;;;;15.60;5.88;;;7.30;99.90;;;;;;4990679;28;20053;-79
2023/05/25 03:04:44;;;;;;;13.07;5.03;;;7.30;99.90;;;;;;5004741;28;20032;-78
2023/05/25 03:07:11;;;;;;;8.02;3.65;;;7.30;99.90;;;;;;5007845;28;20040;-78
2023/05/25 03:09:38;;;;;;;7.18;3.47;;;7.30;99.90;;;;;;5011773;28;20044;-78
2023/05/25 03:12:05;;;;;;;9.43;3.80;;;7.30;99.90;;;;;;5010898;28;20053;-78
2023/05/25 03:14:31;;;;;;;7.57;3.25;;;7.20;99.90;;;;;;5010060;28;20053;-80
2023/05/25 03:17:03;;;;;;;13.07;3.70;;;7.20;99.90;;;;;;5010285;28;20064;-77
2023/05/25 03:19:31;;;;;;;9.70;3.85;;;7.10;99.90;;;;;;5009676;28;20037;-78
2023/05/25 03:21:59;;;;;;;10.82;4.05;;;7.10;99.90;;;;;;5009876;28;20049;-79
2023/05/25 03:24:25;;;;;;;9.48;3.95;;;7.10;99.90;;;;;;5011281;28;20037;-78
2023/05/25 03:26:56;;;;;;;7.90;5.07;;;7.00;99.90;;;;;;5010902;28;20026;-78
2023/05/25 03:29:22;;;;;;;7.68;3.55;;;7.10;99.90;;;;;;5006937;28;20407;-77
2023/05/25 03:31:49;;;;;;;12.25;4.15;;;7.00;99.90;;;;;;5010507;28;20426;-78
2023/05/25 03:34:18;;;;;;;6.85;3.10;;;7.00;99.90;;;;;;5007282;28;20367;-79
2023/05/25 03:36:46;;;;;;;6.72;3.42;;;6.90;99.90;;;;;;5011100;28;20460;-79
2023/05/25 03:39:13;;;;;;;11.15;4.35;;;6.90;99.90;;;;;;5006801;28;20038;-79
2023/05/25 03:41:41;;;;;;;9.93;4.20;;;6.90;99.90;;;;;;5009295;28;20475;-79
2023/05/25 03:44:09;;;;;;;9.57;4.68;;;6.80;99.90;;;;;;5009534;28;20053;-79
2023/05/25 03:46:36;;;;;;;12.98;4.28;;;6.90;99.90;;;;;;5006775;28;20395;-79
2023/05/25 03:49:03;;;;;;;9.32;3.75;;;6.80;99.90;;;;;;5005460;28;20033;-78
2023/05/25 03:51:30;;;;;;;10.60;5.30;;;6.80;99.90;;;;;;5011001;28;20105;-78
2023/05/25 03:53:56;;;;;;;11.07;4.55;;;6.80;99.90;;;;;;5009307;28;20042;-78
2023/05/25 03:56:23;;;;;;;8.57;4.10;;;6.80;99.90;;;;;;5009652;28;20033;-79
2023/05/25 03:58:51;;;;;;;15.25;5.32;;;6.80;99.90;;;;;;5012118;28;20045;-78
2023/05/25 04:01:17;;;;;;;8.77;4.35;;;6.90;99.90;;;;;;5012812;28;20038;-79
2023/05/25 04:03:44;;;;;;;10.65;3.80;;;6.90;99.90;;;;;;4996610;28;20041;-76
2023/05/25 04:06:10;;;;;;;12.93;4.22;;;6.90;99.90;;;;;;5014162;28;20022;-78
2023/05/25 04:08:36;;;;;;;16.48;4.35;;;6.90;99.90;;;;;;5015487;28;20029;-76
2023/05/25 04:11:04;;;;;;;8.73;3.03;;;7.00;99.90;;;;;;5012771;28;20049;-76
2023/05/25 04:13:34;;;;;;;8.05;3.60;;;7.10;99.90;;;;;;5027734;28;20057;-76
2023/05/25 04:16:00;;;;;;;10.52;4.10;;;7.10;99.90;;;;;;5012473;28;20495;-74
2023/05/25 04:18:29;;;;;;;10.63;3.20;;;7.10;99.90;;;;;;5011748;28;20034;-77
2023/05/25 04:20:56;;;;;;;10.98;4.20;;;7.20;99.90;;;;;;5016002;28;20037;-77
2023/05/25 04:23:23;;;;;;;14.57;4.22;;;7.30;99.90;;;;;;5009813;28;20137;-77
2023/05/25 04:25:52;;;;;;;9.13;3.78;;;7.40;99.90;;;;;;5002374;28;20511;-77
2023/05/25 04:28:18;;;;;;;9.88;3.15;;;8.00;99.90;;;;;;5000004;28;20865;-76
2023/05/25 04:31:12;;;;;;;9.90;3.22;;;8.60;99.90;;;;;;5013673;28;20061;-77
2023/05/25 04:33:45;;;;;;;7.90;3.05;;;8.80;99.90;;;;;;5012199;28;20073;-76
2023/05/25 04:36:31;;;;;;;7.18;3.60;;;9.00;99.90;;;;;;4999833;28;20029;-81
2023/05/25 04:39:01;;;;;;;6.10;2.22;;;9.40;98.80;;;;;;5002150;28;20046;-81
2023/05/25 04:41:32;;;;;;;6.15;2.50;;;9.60;79.30;;;;;;5011768;28;20463;-81
2023/05/25 04:44:02;;;;;;;8.38;2.83;;;9.80;67.10;;;;;;5036080;28;20038;-79
2023/05/25 04:46:30;;;;;;;8.82;3.53;;;9.60;72.70;;;;;;4993133;28;20050;-81
2023/05/25 04:48:57;;;;;;;10.43;3.00;;;9.90;66.00;;;;;;5012533;28;20375;-80
2023/05/25 04:51:24;;;;;;;5.95;2.83;;;10.80;23.60;;;;;;5028028;28;20359;-79
2023/05/25 04:53:50;;;;;;;6.22;3.33;;;10.60;10.00;;;;;;5031895;28;20042;-80
2023/05/25 04:56:18;;;;;;;10.25;3.15;;;10.70;17.90;;;;;;4994842;28;20039;-81
2023/05/25 04:58:44;;;;;;;5.10;2.40;;;10.70;11.40;;;;;;5014189;28;20459;-84
2023/05/25 05:01:10;;;;;;;6.28;2.22;;;10.70;15.30;;;;;;5015153;28;20456;-81
2023/05/25 05:03:36;;;;;;;11.57;3.05;;;10.70;20.20;;;;;;5013610;28;20038;-79
2023/05/25 05:06:03;;;;;;;10.55;4.38;;;10.60;15.20;;;;;;5019069;28;20038;-82
2023/05/25 05:08:31;;;;;;;5.30;3.38;;;10.80;9.80;;;;;;5013334;28;20058;-82
2023/05/25 05:10:58;;;;;;;12.50;3.33;;;10.90;6.30;;;;;;5013496;28;20068;-82
2023/05/25 05:13:25;;;;;;;12.55;3.30;;;11.10;1.00;;;;;;5002205;28;20522;-83
2023/05/25 05:15:52;;;;;;;7.35;3.00;;;11.00;1.00;;;;;;4997927;28;20046;-82
2023/05/25 05:18:19;;;;;;;10.80;2.45;;;11.10;1.00;;;;;;5012009;28;20038;-82
2023/05/25 05:20:45;;;;;;;9.48;2.88;;;11.10;1.00;;;;;;5015134;28;20030;-81
2023/05/25 05:23:12;;;;;;;7.22;2.78;;;11.20;1.00;;;;;;5030841;28;20042;-82
2023/05/25 05:25:39;;;;;;;9.32;3.30;;;11.70;1.00;;;;;;5013122;28;20049;-82
2023/05/25 05:28:05;;;;;;;5.68;2.47;;;11.70;1.00;;;;;;5011009;28;20034;-82
2023/05/25 05:30:37;;;;;;;8.30;2.30;;;12.10;1.00;;;;;;4979769;28;20049;-83
2023/05/25 05:33:03;;;;;;;10.68;2.33;;;12.70;1.00;;;;;;5006283;28;20046;-82
2023/05/25 05:35:36;;;;;;;5.03;2.40;;;12.40;1.00;;;;;;5003864;28;20064;-82
2023/05/25 05:38:09;;;;;;;7.57;3.30;;;12.50;1.00;;;;;;5024034;28;20038;-82
2023/05/25 05:40:36;;;;;;;7.95;2.95;;;12.60;1.00;;;;;;5014201;28;20471;-83
2023/05/25 05:43:02;;;;;;;5.60;2.50;;;12.70;1.00;;;;;;5014066;28;20475;-80
2023/05/25 05:45:28;;;;;;;11.27;2.80;;;12.70;1.00;;;;;;4991604;28;20042;-83
2023/05/25 05:47:55;;;;;;;12.02;3.05;;;12.60;1.00;;;;;;5013738;28;20038;-81
2023/05/25 05:50:21;;;;;;;8.50;2.10;;;13.00;1.00;;;;;;5005388;28;20045;-81
2023/05/25 05:52:47;;;;;;;8.25;2.63;;;13.10;1.00;;;;;;5011639;28;20038;-81
2023/05/25 05:55:14;;;;;;;8.57;2.60;;;13.40;1.00;;;;;;5013128;28;20026;-83
2023/05/25 05:57:41;;;;;;;5.78;2.38;;;13.70;1.00;;;;;;5028438;28;20041;-79
2023/05/25 06:00:08;;;;;;;13.65;3.70;;;13.50;1.00;;;;;;5006720;28;20043;-80
2023/05/25 06:02:45;;;;;;;12.00;3.30;;;13.60;1.00;;;;;;5012863;28;20038;-77
2023/05/25 06:05:17;;;;;;;6.55;2.88;;;13.70;1.00;;;;;;5011553;28;20045;-77
2023/05/25 06:07:44;;;;;;;8.38;2.25;;;13.60;1.00;;;;;;5009657;28;20042;-74
2023/05/25 06:10:11;;;;;;;8.52;2.50;;;13.80;1.00;;;;;;5009685;28;20063;-75
2023/05/25 06:12:38;;;;;;;7.78;2.40;;;13.60;1.00;;;;;;5012374;28;20045;-75
2023/05/25 06:15:05;;;;;;;7.05;2.60;;;13.70;1.00;;;;;;5012672;28;20044;-75
2023/05/25 06:17:32;;;;;;;9.15;2.30;;;13.70;1.00;;;;;;5008028;28;20072;-74
2023/05/25 06:19:59;;;;;;;8.07;2.38;;;13.50;1.00;;;;;;5006065;28;20462;-77
2023/05/25 06:22:26;;;;;;;7.68;3.20;;;13.40;1.00;;;;;;4991922;28;20042;-76
2023/05/25 06:24:53;;;;;;;5.90;2.42;;;13.10;1.00;;;;;;5012853;28;20029;-74
2023/05/25 06:27:19;;;;;;;6.88;2.67;;;13.10;1.00;;;;;;5011026;28;20474;-74
2023/05/25 06:29:45;;;;;;;6.65;3.15;;;13.40;1.00;;;;;;5028243;28;20053;-73
2023/05/25 06:32:11;;;;;;;7.85;2.08;;;13.10;1.00;;;;;;5012962;28;20026;-75
2023/05/25 06:34:38;;;;;;;8.18;2.60;;;13.00;1.00;;;;;;5026119;28;20038;-74
2023/05/25 06:37:04;;;;;;;4.25;1.85;;;13.40;1.00;;;;;;5010035;28;20042;-75
2023/05/25 06:39:31;;;;;;;7.93;2.67;;;13.70;1.00;;;;;;5018814;28;20370;-75
2023/05/25 06:41:57;;;;;;;6.30;2.53;;;13.80;1.00;;;;;;5013493;28;20042;-75
2023/05/25 06:44:33;;;;;;;4.70;1.95;;;14.00;1.00;;;;;;5010953;28;20046;-74
2023/05/25 06:47:05;;;;;;;5.85;2.15;;;14.20;1.00;;;;;;5008105;28;20049;-75
2023/05/25 06:49:31;;;;;;;9.65;2.60;;;13.80;1.00;;;;;;5025651;28;20379;-75
2023/05/25 06:51:57;;;;;;;5.80;1.85;;;14.20;1.00;;;;;;5012774;28;20477;-75
2023/05/25 06:54:24;;;;;;;6.00;2.40;;;14.20;1.00;;;;;;5011959;28;20036;-74
2023/05/25 06:56:50;;;;;;;8.00;2.08;;;14.80;1.00;;;;;;5011060;28;20037;-74
2023/05/25 06:59:17;;;;;;;7.63;2.88;;;15.00;1.00;;;;;;5012567;28;20054;-79
2023/05/25 07:01:46;;;;;;;5.70;2.08;;;15.00;99.90;;;;;;5011643;28;20037;-75
2023/05/25 07:04:12;;;;;;;5.32;2.00;;;15.40;99.90;;;;;;5011461;28;20030;-74
2023/05/25 07:06:38;;;;;;;7.30;2.97;;;15.90;99.90;;;;;;5010637;28;20029;-74
2023/05/25 07:09:05;;;;;;;5.50;2.30;;;16.50;99.90;;;;;;5012216;28;20038;-75
2023/05/25 07:11:34;;;;;;;5.53;2.03;;;16.70;99.90;;;;;;5010820;28;20408;-75
2023/05/25 07:14:00;;;;;;;9.05;2.88;;;16.70;99.90;;;;;;5011880;28;20037;-72
2023/05/25 07:16:26;;;;;;;6.38;2.25;;;17.10;99.90;;;;;;5010172;28;20041;-75
2023/05/25 07:18:55;;;;;;;6.13;2.10;;;18.00;99.90;;;;;;5012209;28;20038;-73
2023/05/25 07:21:21;;;;;;;11.15;3.35;;;17.90;99.90;;;;;;5011568;28;20034;-75
2023/05/25 07:23:47;;;;;;;5.82;2.42;;;17.80;99.90;;;;;;5011884;28;20025;-73
2023/05/25 07:26:13;;;;;;;6.82;2.67;;;16.70;99.90;;;;;;5010779;28;20037;-73
2023/05/25 07:28:40;;;;;;;9.95;2.85;;;17.40;99.90;;;;;;5011232;28;20021;-74
2023/05/25 07:31:07;;;;;;;6.88;2.40;;;17.80;99.90;;;;;;5008174;28;20034;-73
2023/05/25 07:33:33;;;;;;;7.35;2.53;;;18.10;99.90;;;;;;5010627;28;20049;-73
2023/05/25 07:35:59;;;;;;;4.90;2.00;;;18.00;99.90;;;;;;5010710;28;20041;-74
2023/05/25 07:38:25;;;;;;;12.27;3.67;;;17.30;99.90;;;;;;5011269;28;20029;-75
2023/05/25 07:40:51;;;;;;;6.30;2.50;;;16.90;99.90;;;;;;5011905;28;20030;-74
2023/05/25 07:43:18;;;;;;;5.93;2.38;;;17.30;99.90;;;;;;5011272;28;20499;-75
2023/05/25 07:45:44;;;;;;;8.18;2.58;;;18.10;99.90;;;;;;5010051;28;20440;-74
2023/05/25 07:48:10;;;;;;;7.50;2.83;;;18.40;99.90;;;;;;5010572;28;20042;-74
2023/05/25 07:50:36;;;;;;;6.00;2.35;;;17.40;99.90;;;;;;5010738;28;20025;-74
2023/05/25 07:53:02;;;;;;;5.88;2.85;;;17.10;99.90;;;;;;5011418;28;20029;-74
2023/05/25 07:55:29;;;;;;;5.90;2.42;;;16.90;99.90;;;;;;5010789;28;20037;-74
2023/05/25 07:57:55;;;;;;;9.68;2.70;;;17.60;99.90;;;;;;5010249;28;20239;-74
2023/05/25 08:00:21;;;;;;;7.70;2.00;;;18.50;99.90;;;;;;5011314;28;20034;-74
2023/05/25 08:02:50;;;;;;;8.07;3.13;;;18.50;99.90;;;;;;5011596;28;20041;-74
2023/05/25 08:05:16;;;;;;;6.22;2.10;;;18.00;99.90;;;;;;5011862;28;20034;-75
2023/05/25 08:07:43;;;;;;;6.78;3.03;;;18.30;99.90;;;;;;5009763;28;20033;-74
2023/05/25 08:10:12;;;;;;;9.00;2.60;;;18.00;99.90;;;;;;5011746;28;20447;-73
2023/05/25 08:12:39;;;;;;;5.28;2.25;;;18.30;99.90;;;;;;5010727;28;20046;-74
2023/05/25 08:15:05;;;;;;;6.38;2.85;;;18.50;99.90;;;;;;5011300;28;20042;-74
2023/05/25 08:17:31;;;;;;;7.50;2.97;;;18.20;99.90;;;;;;5009295;28;20367;-73
2023/05/25 08:19:57;;;;;;;6.07;2.28;;;17.70;99.90;;;;;;5011374;28;20025;-74
2023/05/25 08:22:24;;;;;;;7.82;2.50;;;18.00;99.90;;;;;;5007782;28;20054;-75
2023/05/25 08:24:51;;;;;;;7.43;2.83;;;17.70;99.90;;;;;;5011347;28;20034;-75
2023/05/25 08:27:17;;;;;;;9.48;3.22;;;18.30;99.90;;;;;;5010240;28;20040;-75
2023/05/25 08:29:43;;;;;;;6.15;1.95;;;17.90;99.90;;;;;;5010485;28;20033;-74
2023/05/25 08:32:09;;;;;;;7.20;2.72;;;18.40;99.90;;;;;;5011457;28;20379;-76
2023/05/25 08:34:35;;;;;;;4.22;2.03;;;18.80;99.90;;;;;;5010711;28;20037;-74
2023/05/25 08:37:02;;;;;;;7.43;2.40;;;19.30;99.90;;;;;;5010097;28;20398;-76
2023/05/25 08:39:28;;;;;;;10.02;2.90;;;19.10;99.90;;;;;;5010826;28;20021;-75
2023/05/25 08:41:54;;;;;;;7.53;2.85;;;19.30;99.90;;;;;;5011368;28;20032;-75
2023/05/25 08:44:21;;;;;;;6.63;2.15;;;18.60;99.90;;;;;;5007865;28;20030;-74
2023/05/25 08:46:48;;;;;;;9.07;3.05;;;19.10;99.90;;;;;;5012955;28;20045;-76
2023/05/25 08:49:15;;;;;;;5.40;2.38;;;18.70;99.90;;;;;;5015042;28;20033;-74
2023/05/25 08:51:51;;;;;;;6.40;3.08;;;18.00;99.90;;;;;;5014255;28;20041;-74
2023/05/25 08:54:19;;;;;;;7.05;2.42;;;18.50;99.90;;;;;;5014989;28;20026;-75
2023/05/25 08:56:52;;;;;;;5.90;2.35;;;19.10;99.90;;;;;;5013076;28;20033;-75
2023/05/25 08:59:35;;;;;;;11.60;2.50;;;19.10;99.90;;;;;;5011299;28;20036;-75
2023/05/25 09:02:24;;;;;;;6.57;2.38;;;19.40;99.90;;;;;;5012912;28;20030;-75
2023/05/25 09:04:51;;;;;;;9.70;2.63;;;19.10;99.90;;;;;;5003992;28;20050;-75
2023/05/25 09:07:17;;;;;;;7.93;2.70;;;18.90;99.90;;;;;;5013471;28;20034;-75
2023/05/25 09:09:46;;;;;;;7.07;4.15;;;18.40;99.90;;;;;;5013991;28;20275;-75
2023/05/25 09:12:14;;;;;;;7.13;3.10;;;19.10;99.90;;;;;;5014535;28;20022;-74
2023/05/25 09:14:44;;;;;;;5.85;3.10;;;19.40;99.90;;;;;;5014334;28;20034;-75
2023/05/25 09:17:12;;;;;;;4.95;3.17;;;19.50;99.90;;;;;;5013549;28;20041;-75
2023/05/25 09:19:38;;;;;;;8.73;2.63;;;19.60;99.90;;;;;;5014106;28;20025;-75
2023/05/25 09:22:04;;;;;;;5.40;2.83;;;19.90;99.90;;;;;;5014326;28;20037;-75
2023/05/25 09:24:31;;;;;;;7.75;2.83;;;19.40;99.90;;;;;;5013733;28;20045;-77
2023/05/25 09:26:58;;;;;;;6.63;3.13;;;19.50;99.90;;;;;;5013091;28;20033;-75
2023/05/25 09:29:25;;;;;;;7.50;2.92;;;19.50;99.90;;;;;;5013768;28;20022;-76
2023/05/25 09:31:51;;;;;;;10.43;3.00;;;19.20;99.90;;;;;;5014326;28;20041;-74
2023/05/25 09:34:19;;;;;;;5.65;2.30;;;19.60;99.90;;;;;;5014418;28;20042;-75
2023/05/25 09:36:45;;;;;;;8.65;2.80;;;19.40;99.90;;;;;;5011996;28;20459;-75
2023/05/25 09:39:12;;;;;;;7.20;2.70;;;18.90;99.90;;;;;;5014231;28;20048;-74
2023/05/25 09:41:42;;;;;;;10.60;2.65;;;19.20;99.90;;;;;;5013594;28;20030;-74
2023/05/25 09:44:08;;;;;;;9.30;2.92;;;19.10;99.90;;;;;;5013895;28;20033;-74
2023/05/25 09:46:37;;;;;;;6.60;2.53;;;19.60;99.90;;;;;;5012234;28;20034;-74
2023/05/25 09:49:07;;;;;;;7.20;3.37;;;20.00;99.90;;;;;;5013949;28;20025;-73
2023/05/25 09:51:35;;;;;;;6.05;3.22;;;19.00;99.90;;;;;;5013525;28;20025;-74
2023/05/25 09:54:02;;;;;;;9.50;3.00;;;19.50;99.90;;;;;;5013687;28;20030;-74
2023/05/25 09:56:31;;;;;;;6.47;3.00;;;19.20;99.90;;;;;;5011074;28;20042;-74
2023/05/25 09:58:58;;;;;;;8.23;3.00;;;19.10;99.90;;;;;;5013545;28;20575;-80
2023/05/25 10:01:26;;;;;;;5.78;2.90;;;19.40;99.90;;;;;;5013031;28;20048;-78
2023/05/25 10:03:55;;;;;;;8.18;3.63;;;19.50;99.90;;;;;;5013901;28;20034;-73
2023/05/25 10:06:22;;;;;;;8.77;3.35;;;19.60;99.90;;;;;;5012220;28;20034;-74
2023/05/25 10:08:51;;;;;;;5.35;2.55;;;19.80;99.90;;;;;;5013122;28;20037;-73
2023/05/25 10:11:20;;;;;;;6.90;3.22;;;19.80;99.90;;;;;;5013573;28;20045;-74
2023/05/25 10:13:46;;;;;;;5.25;2.88;;;19.50;99.90;;;;;;5012484;28;20041;-73
2023/05/25 10:16:18;;;;;;;8.60;2.42;;;19.70;99.90;;;;;;5008542;28;20053;-73
2023/05/25 10:19:05;;;;;;;6.65;2.75;;;20.10;99.90;;;;;;5012799;28;20323;-73
2023/05/25 10:21:33;;;;;;;5.38;2.90;;;19.40;99.90;;;;;;5010571;28;20044;-72
2023/05/25 10:24:05;;;;;;;7.90;3.05;;;19.60;99.90;;;;;;5011317;28;20037;-73
2023/05/25 10:26:36;;;;;;;10.27;3.10;;;19.60;99.90;;;;;;5005053;28;20030;-72
2023/05/25 10:29:03;;;;;;;6.78;3.05;;;19.70;99.90;;;;;;5011802;28;20037;-72
2023/05/25 10:31:32;;;;;;;8.00;3.13;;;20.00;99.90;;;;;;5012694;28;20049;-74
2023/05/25 10:33:59;;;;;;;8.80;3.28;;;20.20;99.90;;;;;;5012994;28;20037;-73
2023/05/25 10:36:26;;;;;;;7.40;2.55;;;19.70;99.90;;;;;;5011507;28;20452;-73
2023/05/25 10:38:54;;;;;;;5.18;2.92;;;19.90;99.90;;;;;;5013126;28;20044;-73
2023/05/25 10:41:20;;;;;;;8.38;2.90;;;19.80;99.90;;;;;;5012963;28;20030;-72
2023/05/25 10:43:47;;;;;;;8.05;2.83;;;20.20;99.90;;;;;;5012254;28;20061;-74
2023/05/25 10:46:14;;;;;;;7.10;3.15;;;20.20;99.90;;;;;;5011529;28;20026;-73
2023/05/25 10:48:47;;;;;;;8.70;2.47;;;19.90;99.90;;;;;;5012532;28;20038;-73
2023/05/25 10:51:14;;;;;;;9.90;3.42;;;19.80;99.90;;;;;;5013182;28;20029;-75
2023/05/25 10:53:46;;;;;;;8.10;2.60;;;20.00;99.90;;;;;;5012268;28;20034;-73
2023/05/25 10:56:13;;;;;;;6.97;3.03;;;19.90;99.90;;;;;;5011491;28;20029;-73
2023/05/25 10:58:45;;;;;;;9.48;2.90;;;20.00;99.90;;;;;;5012056;28;20030;-74
2023/05/25 11:01:12;;;;;;;4.82;2.65;;;19.80;99.90;;;;;;5012590;28;20026;-72
2023/05/25 11:03:53;;;;;;;8.90;3.20;;;20.10;99.90;;;;;;5012002;28;20029;-73
2023/05/25 11:06:21;;;;;;;6.93;2.58;;;20.20;99.90;;;;;;5010774;28;20102;-73
2023/05/25 11:08:55;;;;;;;7.22;3.00;;;20.10;99.90;;;;;;5010557;28;20041;-73
2023/05/25 11:11:42;;;;;;;5.30;2.53;;;20.20;99.90;;;;;;5012803;28;20025;-73
2023/05/25 11:14:32;;;;;;;6.63;2.30;;;20.30;99.90;;;;;;5011500;28;20030;-72
2023/05/25 11:17:14;;;;;;;8.63;3.72;;;20.40;99.90;;;;;;5004850;28;20045;-73
2023/05/25 11:19:52;;;;;;;7.30;2.22;;;20.20;99.90;;;;;;5012018;28;20041;-75
2023/05/25 11:22:29;;;;;;;6.10;2.58;;;20.20;99.90;;;;;;5008713;28;20034;-73
2023/05/25 11:24:57;;;;;;;6.90;3.00;;;20.50;99.90;;;;;;5008671;28;20030;-75
2023/05/25 11:27:30;;;;;;;7.00;2.60;;;20.50;99.90;;;;;;5011123;28;20340;-75
2023/05/25 11:29:58;;;;;;;5.88;2.30;;;20.60;99.90;;;;;;5012657;28;20045;-73
2023/05/25 11:32:25;;;;;;;7.60;3.47;;;20.80;99.90;;;;;;5012606;28;20037;-73
2023/05/25 11:34:52;;;;;;;9.55;3.40;;;20.90;99.90;;;;;;5011959;28;20478;-72
2023/05/25 11:37:23;;;;;;;7.35;2.70;;;20.70;99.90;;;;;;5010711;28;20489;-72
2023/05/25 11:39:51;;;;;;;6.72;2.63;;;20.60;99.90;;;;;;5011597;28;20064;-74
2023/05/25 11:42:22;;;;;;;7.68;3.13;;;20.70;99.90;;;;;;5008800;28;20042;-72
2023/05/25 11:44:48;;;;;;;7.32;3.15;;;20.80;99.90;;;;;;5011624;28;20054;-73
2023/05/25 11:47:21;;;;;;;6.00;2.75;;;20.80;99.90;;;;;;5010765;28;20371;-74
2023/05/25 11:49:48;;;;;;;6.80;2.72;;;20.70;99.90;;;;;;5011455;28;20034;-73
2023/05/25 11:52:19;;;;;;;5.55;3.20;;;20.70;99.90;;;;;;5011930;28;20467;-74
2023/05/25 11:54:45;;;;;;;7.95;2.75;;;21.00;99.90;;;;;;5011711;28;20024;-73
2023/05/25 11:57:17;;;;;;;6.85;2.60;;;21.10;99.90;;;;;;5010963;28;20049;-73
2023/05/25 11:59:48;;;;;;;5.55;2.78;;;21.20;99.90;;;;;;5008567;28;20029;-73
2023/05/25 12:02:15;;;;;;;4.60;2.50;;;21.10;99.90;;;;;;5011720;28;20041;-72
2023/05/25 12:04:58;;;;;;;6.78;2.42;;;21.10;99.90;;;;;;5011304;28;20045;-74
2023/05/25 12:07:25;;;;;;;6.35;2.80;;;21.60;99.90;;;;;;5010857;28;20022;-72
2023/05/25 12:10:05;;;;;;;5.00;2.38;;;21.50;99.90;;;;;;5011245;28;20026;-72
2023/05/25 12:12:40;;;;;;;9.43;3.00;;;21.10;99.90;;;;;;5011096;28;20034;-73
2023/05/25 12:15:10;;;;;;;5.88;3.10;;;21.20;99.90;;;;;;5006201;28;20390;-74
2023/05/25 12:17:37;;;;;;;5.55;3.08;;;21.20;99.90;;;;;;5007072;28;20037;-75
2023/05/25 12:20:06;;;;;;;5.75;3.05;;;21.30;99.90;;;;;;5025187;28;20443;-72
2023/05/25 12:22:33;;;;;;;5.25;2.17;;;21.30;99.90;;;;;;5014169;28;20030;-73
2023/05/25 12:24:59;;;;;;;5.50;2.42;;;21.10;99.90;;;;;;5015514;28;20049;-72
2023/05/25 12:27:25;;;;;;;8.60;2.60;;;21.20;99.90;;;;;;5025472;28;20029;-73
2023/05/25 12:29:51;;;;;;;6.55;2.75;;;21.20;99.90;;;;;;5013933;28;20341;-73
2023/05/25 12:32:18;;;;;;;5.40;2.70;;;21.40;99.90;;;;;;5015438;28;20029;-73
2023/05/25 12:34:44;;;;;;;8.85;2.70;;;21.60;99.90;;;;;;5015076;28;20046;-73
2023/05/25 12:37:18;;;;;;;6.30;2.42;;;21.50;99.90;;;;;;5014180;28;20042;-73
2023/05/25 12:39:45;;;;;;;6.22;2.95;;;21.30;99.90;;;;;;5014956;28;20033;-75
2023/05/25 12:42:16;;;;;;;6.72;3.22;;;21.40;99.90;;;;;;5015237;28;20030;-73
2023/05/25 12:44:45;;;;;;;9.90;4.13;;;21.50;99.90;;;;;;5014826;28;20053;-73
2023/05/25 12:47:14;;;;;;;8.93;2.70;;;21.50;99.90;;;;;;5014245;28;20046;-73
2023/05/25 12:49:43;;;;;;;4.10;2.35;;;21.40;99.90;;;;;;5012630;28;20033;-74
2023/05/25 12:52:10;;;;;;;3.80;1.92;;;21.50;99.90;;;;;;5015519;28;20025;-75
2023/05/25 12:54:45;;;;;;;4.38;2.20;;;21.50;99.90;;;;;;5016179;28;20502;-74
2023/05/25 12:57:13;;;;;;;5.53;2.00;;;21.50;99.90;;;;;;5013842;28;20055;-76